sensor_id;sensor_type;location;lat;lon;timestamp;temperature;humidity
39401;DHT22;54391;50.000;7.360;2023-04-06T00:01:02;2.50;1.00
39401;DHT22;54391;50.000;7.360;2023-04-06T00:03:29;2.50;1.00
39401;DHT22;54391;50.000;7.360;2023-04-06T00:08:26;2.50;1.00
39401;DHT22;54391;50.000;7.360;2023-04-06T00:10:53;2.50;1.00
39401;DHT22;54391;50.000;7.360;2023-04-06T00:13:21;2.50;1.00
39401;DHT22;54391;50.000;7.360;2023-04-06T00:15:48;2.50;1.00
39401;DHT22;54391;50.000;7.360;2023-04-06T00:20:43;2.50;1.00
39401;DHT22;54391;50.000;7.360;2023-04-06T00:23:11;2.50;1.00
39401;DHT22;54391;50.000;7.360;2023-04-06T00:25:40;2.50;1.00
39401;DHT22;54391;50.000;7.360;2023-04-06T00:28:07;2.40;1.00
39401;DHT22;54391;50.000;7.360;2023-04-06T00:30:34;2.50;1.00
39401;DHT22;54391;50.000;7.360;2023-04-06T00:35:29;2.40;1.00
39401;DHT22;54391;50.000;7.360;2023-04-06T00:37:57;2.30;1.00
39401;DHT22;54391;50.000;7.360;2023-04-06T00:40:24;2.30;1.00
39401;DHT22;54391;50.000;7.360;2023-04-06T00:42:55;2.40;1.00
39401;DHT22;54391;50.000;7.360;2023-04-06T00:45:22;2.30;1.00
39401;DHT22;54391;50.000;7.360;2023-04-06T00:47:50;2.30;1.00
39401;DHT22;54391;50.000;7.360;2023-04-06T00:50:18;2.40;1.00
39401;DHT22;54391;50.000;7.360;2023-04-06T00:52:46;2.40;1.00
39401;DHT22;54391;50.000;7.360;2023-04-06T00:55:13;2.40;1.00
39401;DHT22;54391;50.000;7.360;2023-04-06T00:57:42;5.50;1.00
39401;DHT22;54391;50.000;7.360;2023-04-06T01:00:12;2.30;1.00
39401;DHT22;54391;50.000;7.360;2023-04-06T01:02:43;2.20;1.00
39401;DHT22;54391;50.000;7.360;2023-04-06T01:05:14;2.30;1.00
39401;DHT22;54391;50.000;7.360;2023-04-06T01:10:25;2.20;1.00
39401;DHT22;54391;50.000;7.360;2023-04-06T01:12:58;2.10;1.00
39401;DHT22;54391;50.000;7.360;2023-04-06T01:15:46;2.10;1.00
39401;DHT22;54391;50.000;7.360;2023-04-06T01:18:25;2.10;1.00
39401;DHT22;54391;50.000;7.360;2023-04-06T01:21:00;2.20;1.00
39401;DHT22;54391;50.000;7.360;2023-04-06T01:23:29;2.10;1.00
39401;DHT22;54391;50.000;7.360;2023-04-06T01:31:00;2.30;1.00
39401;DHT22;54391;50.000;7.360;2023-04-06T01:33:42;2.30;1.00
39401;DHT22;54391;50.000;7.360;2023-04-06T01:36:15;2.20;1.00
39401;DHT22;54391;50.000;7.360;2023-04-06T01:38:46;2.30;1.00
39401;DHT22;54391;50.000;7.360;2023-04-06T01:41:16;2.30;1.00
39401;DHT22;54391;50.000;7.360;2023-04-06T01:43:48;2.20;1.00
39401;DHT22;54391;50.000;7.360;2023-04-06T01:46:16;2.20;1.00
39401;DHT22;54391;50.000;7.360;2023-04-06T01:48:44;2.20;1.00
39401;DHT22;54391;50.000;7.360;2023-04-06T01:51:41;2.20;1.00
39401;DHT22;54391;50.000;7.360;2023-04-06T01:54:13;2.20;1.00
39401;DHT22;54391;50.000;7.360;2023-04-06T01:56:56;2.30;1.00
39401;DHT22;54391;50.000;7.360;2023-04-06T01:59:31;2.20;1.00
39401;DHT22;54391;50.000;7.360;2023-04-06T02:02:03;2.10;1.00
39401;DHT22;54391;50.000;7.360;2023-04-06T02:04:32;2.10;1.00
39401;DHT22;54391;50.000;7.360;2023-04-06T02:07:08;2.20;1.00
39401;DHT22;54391;50.000;7.360;2023-04-06T02:09:37;2.00;1.00
39401;DHT22;54391;50.000;7.360;2023-04-06T02:17:03;1.90;1.00
39401;DHT22;54391;50.000;7.360;2023-04-06T02:19:31;1.90;1.00
39401;DHT22;54391;50.000;7.360;2023-04-06T02:21:58;1.90;1.00
39401;DHT22;54391;50.000;7.360;2023-04-06T02:24:27;1.90;1.00
39401;DHT22;54391;50.000;7.360;2023-04-06T02:26:57;1.80;1.00
39401;DHT22;54391;50.000;7.360;2023-04-06T02:29:24;1.80;1.00
39401;DHT22;54391;50.000;7.360;2023-04-06T02:31:51;1.80;1.00
39401;DHT22;54391;50.000;7.360;2023-04-06T02:34:20;1.80;1.00
39401;DHT22;54391;50.000;7.360;2023-04-06T02:36:50;1.80;1.00
39401;DHT22;54391;50.000;7.360;2023-04-06T02:39:17;1.80;1.00
39401;DHT22;54391;50.000;7.360;2023-04-06T02:41:47;1.80;1.00
39401;DHT22;54391;50.000;7.360;2023-04-06T02:44:20;1.80;1.00
39401;DHT22;54391;50.000;7.360;2023-04-06T02:51:43;1.60;1.00
39401;DHT22;54391;50.000;7.360;2023-04-06T02:54:18;1.60;1.00
39401;DHT22;54391;50.000;7.360;2023-04-06T02:56:46;1.70;1.00
39401;DHT22;54391;50.000;7.360;2023-04-06T02:59:13;1.70;1.00
39401;DHT22;54391;50.000;7.360;2023-04-06T03:01:48;1.60;1.00
39401;DHT22;54391;50.000;7.360;2023-04-06T03:06:45;1.60;1.00
39401;DHT22;54391;50.000;7.360;2023-04-06T03:09:23;1.60;1.00
39401;DHT22;54391;50.000;7.360;2023-04-06T03:11:50;1.60;1.00
39401;DHT22;54391;50.000;7.360;2023-04-06T03:14:18;1.60;1.00
39401;DHT22;54391;50.000;7.360;2023-04-06T03:16:49;1.60;1.00
39401;DHT22;54391;50.000;7.360;2023-04-06T03:19:20;1.60;1.00
39401;DHT22;54391;50.000;7.360;2023-04-06T03:21:48;1.50;1.00
39401;DHT22;54391;50.000;7.360;2023-04-06T03:24:17;1.40;1.00
39401;DHT22;54391;50.000;7.360;2023-04-06T03:26:45;1.40;1.00
39401;DHT22;54391;50.000;7.360;2023-04-06T03:29:13;1.40;1.00
39401;DHT22;54391;50.000;7.360;2023-04-06T03:31:41;1.40;1.00
39401;DHT22;54391;50.000;7.360;2023-04-06T03:34:36;1.40;1.00
39401;DHT22;54391;50.000;7.360;2023-04-06T03:39:31;1.20;1.00
39401;DHT22;54391;50.000;7.360;2023-04-06T03:41:59;1.20;1.00
39401;DHT22;54391;50.000;7.360;2023-04-06T03:44:33;1.20;1.00
39401;DHT22;54391;50.000;7.360;2023-04-06T03:49:29;1.20;1.00
39401;DHT22;54391;50.000;7.360;2023-04-06T03:52:00;1.10;1.00
39401;DHT22;54391;50.000;7.360;2023-04-06T03:54:28;1.10;1.00
39401;DHT22;54391;50.000;7.360;2023-04-06T03:56:56;1.20;1.00
39401;DHT22;54391;50.000;7.360;2023-04-06T03:59:26;1.20;1.00
39401;DHT22;54391;50.000;7.360;2023-04-06T04:01:53;1.10;1.00
39401;DHT22;54391;50.000;7.360;2023-04-06T04:04:21;1.10;1.00
39401;DHT22;54391;50.000;7.360;2023-04-06T04:09:17;1.00;1.10
39401;DHT22;54391;50.000;7.360;2023-04-06T04:11:44;1.10;1.00
39401;DHT22;54391;50.000;7.360;2023-04-06T04:16:39;1.00;1.20
39401;DHT22;54391;50.000;7.360;2023-04-06T04:21:42;1.00;1.40
39401;DHT22;54391;50.000;7.360;2023-04-06T04:24:13;1.00;1.50
39401;DHT22;54391;50.000;7.360;2023-04-06T04:26:42;1.00;1.70
39401;DHT22;54391;50.000;7.360;2023-04-06T04:29:10;1.00;1.90
39401;DHT22;54391;50.000;7.360;2023-04-06T04:31:38;0.90;1.90
39401;DHT22;54391;50.000;7.360;2023-04-06T04:36:40;0.90;2.30
39401;DHT22;54391;50.000;7.360;2023-04-06T04:39:11;0.70;2.40
39401;DHT22;54391;50.000;7.360;2023-04-06T04:41:45;0.80;2.40
39401;DHT22;54391;50.000;7.360;2023-04-06T04:44:13;0.90;2.60
39401;DHT22;54391;50.000;7.360;2023-04-06T04:46:42;0.90;2.70
39401;DHT22;54391;50.000;7.360;2023-04-06T04:49:11;0.80;2.80
39401;DHT22;54391;50.000;7.360;2023-04-06T04:51:39;0.90;3.00
39401;DHT22;54391;50.000;7.360;2023-04-06T04:54:11;0.90;2.90
39401;DHT22;54391;50.000;7.360;2023-04-06T04:56:40;0.90;2.90
39401;DHT22;54391;50.000;7.360;2023-04-06T04:59:31;0.90;2.90
39401;DHT22;54391;50.000;7.360;2023-04-06T05:02:05;0.90;3.00
39401;DHT22;54391;50.000;7.360;2023-04-06T05:04:42;0.90;3.30
39401;DHT22;54391;50.000;7.360;2023-04-06T05:07:16;0.70;3.20
39401;DHT22;54391;50.000;7.360;2023-04-06T05:09:44;0.90;3.60
39401;DHT22;54391;50.000;7.360;2023-04-06T05:12:12;0.90;3.70
39401;DHT22;54391;50.000;7.360;2023-04-06T05:14:52;0.90;3.80
39401;DHT22;54391;50.000;7.360;2023-04-06T05:17:22;0.90;3.90
39401;DHT22;54391;50.000;7.360;2023-04-06T05:19:50;2.40;4.20
39401;DHT22;54391;50.000;7.360;2023-04-06T05:22:22;0.90;3.90
39401;DHT22;54391;50.000;7.360;2023-04-06T05:24:59;1.00;3.90
39401;DHT22;54391;50.000;7.360;2023-04-06T05:27:28;0.90;3.90
39401;DHT22;54391;50.000;7.360;2023-04-06T05:29:57;1.10;4.10
39401;DHT22;54391;50.000;7.360;2023-04-06T05:32:27;1.10;4.00
39401;DHT22;54391;50.000;7.360;2023-04-06T05:37:23;1.20;4.00
39401;DHT22;54391;50.000;7.360;2023-04-06T05:39:50;1.10;4.20
39401;DHT22;54391;50.000;7.360;2023-04-06T05:42:18;1.10;4.00
39401;DHT22;54391;50.000;7.360;2023-04-06T05:44:59;1.20;4.10
39401;DHT22;54391;50.000;7.360;2023-04-06T05:50:03;1.30;3.90
39401;DHT22;54391;50.000;7.360;2023-04-06T05:52:34;1.40;3.80
39401;DHT22;54391;50.000;7.360;2023-04-06T05:55:02;1.60;4.50
39401;DHT22;54391;50.000;7.360;2023-04-06T05:57:31;1.60;3.20
39401;DHT22;54391;50.000;7.360;2023-04-06T06:00:00;1.50;3.30
39401;DHT22;54391;50.000;7.360;2023-04-06T06:02:38;1.50;3.70
39401;DHT22;54391;50.000;7.360;2023-04-06T06:05:14;1.70;3.40
39401;DHT22;54391;50.000;7.360;2023-04-06T06:07:42;1.60;3.20
39401;DHT22;54391;50.000;7.360;2023-04-06T06:10:11;1.70;3.40
39401;DHT22;54391;50.000;7.360;2023-04-06T06:12:39;1.70;3.10
39401;DHT22;54391;50.000;7.360;2023-04-06T06:15:09;1.90;3.00
39401;DHT22;54391;50.000;7.360;2023-04-06T06:20:10;2.10;2.30
39401;DHT22;54391;50.000;7.360;2023-04-06T06:22:38;2.60;1.80
39401;DHT22;54391;50.000;7.360;2023-04-06T06:25:10;2.30;1.00
39401;DHT22;54391;50.000;7.360;2023-04-06T06:27:37;4.60;1.00
39401;DHT22;54391;50.000;7.360;2023-04-06T06:30:08;5.40;1.00
39401;DHT22;54391;50.000;7.360;2023-04-06T06:32:39;6.20;1.00
39401;DHT22;54391;50.000;7.360;2023-04-06T06:35:07;6.60;1.00
39401;DHT22;54391;50.000;7.360;2023-04-06T06:37:34;6.90;1.00
39401;DHT22;54391;50.000;7.360;2023-04-06T06:40:03;7.60;1.00
39401;DHT22;54391;50.000;7.360;2023-04-06T06:42:32;8.00;1.00
39401;DHT22;54391;50.000;7.360;2023-04-06T06:45:20;7.90;1.00
39401;DHT22;54391;50.000;7.360;2023-04-06T06:47:47;7.80;1.00
39401;DHT22;54391;50.000;7.360;2023-04-06T06:50:15;8.60;1.00
39401;DHT22;54391;50.000;7.360;2023-04-06T06:52:42;7.90;1.00
39401;DHT22;54391;50.000;7.360;2023-04-06T06:55:11;8.40;1.00
39401;DHT22;54391;50.000;7.360;2023-04-06T06:57:38;8.60;1.00
39401;DHT22;54391;50.000;7.360;2023-04-06T07:00:09;8.20;1.00
39401;DHT22;54391;50.000;7.360;2023-04-06T07:02:39;8.60;1.00
39401;DHT22;54391;50.000;7.360;2023-04-06T07:05:07;8.50;1.00
39401;DHT22;54391;50.000;7.360;2023-04-06T07:10:03;9.30;1.00
39401;DHT22;54391;50.000;7.360;2023-04-06T07:17:26;10.00;1.00
39401;DHT22;54391;50.000;7.360;2023-04-06T07:19:55;9.70;1.00
39401;DHT22;54391;50.000;7.360;2023-04-06T07:22:22;9.40;1.00
39401;DHT22;54391;50.000;7.360;2023-04-06T07:24:49;9.20;1.00
39401;DHT22;54391;50.000;7.360;2023-04-06T07:27:17;9.40;1.00
39401;DHT22;54391;50.000;7.360;2023-04-06T07:29:45;9.60;1.00
39401;DHT22;54391;50.000;7.360;2023-04-06T07:37:09;10.40;1.00
39401;DHT22;54391;50.000;7.360;2023-04-06T07:39:37;10.70;1.00
39401;DHT22;54391;50.000;7.360;2023-04-06T07:42:04;10.30;1.00
39401;DHT22;54391;50.000;7.360;2023-04-06T07:44:32;11.00;1.00
39401;DHT22;54391;50.000;7.360;2023-04-06T07:47:00;10.90;1.00
39401;DHT22;54391;50.000;7.360;2023-04-06T07:51:56;11.10;1.00
39401;DHT22;54391;50.000;7.360;2023-04-06T07:54:25;11.00;1.00
39401;DHT22;54391;50.000;7.360;2023-04-06T07:59:20;11.50;1.00
39401;DHT22;54391;50.000;7.360;2023-04-06T08:01:48;12.30;1.00
39401;DHT22;54391;50.000;7.360;2023-04-06T08:04:15;12.70;1.00
39401;DHT22;54391;50.000;7.360;2023-04-06T08:06:42;12.60;1.00
39401;DHT22;54391;50.000;7.360;2023-04-06T08:09:10;13.10;1.00
39401;DHT22;54391;50.000;7.360;2023-04-06T08:11:38;12.80;1.00
39401;DHT22;54391;50.000;7.360;2023-04-06T08:14:06;12.60;1.00
39401;DHT22;54391;50.000;7.360;2023-04-06T08:16:33;13.20;1.00
39401;DHT22;54391;50.000;7.360;2023-04-06T08:19:01;13.10;1.00
39401;DHT22;54391;50.000;7.360;2023-04-06T08:21:28;13.10;1.00
39401;DHT22;54391;50.000;7.360;2023-04-06T08:23:56;12.70;1.00
39401;DHT22;54391;50.000;7.360;2023-04-06T08:26:23;12.70;1.00
39401;DHT22;54391;50.000;7.360;2023-04-06T08:28:52;12.90;1.00
39401;DHT22;54391;50.000;7.360;2023-04-06T08:31:20;13.40;1.00
39401;DHT22;54391;50.000;7.360;2023-04-06T08:41:15;13.00;1.00
39401;DHT22;54391;50.000;7.360;2023-04-06T08:43:46;12.90;1.00
39401;DHT22;54391;50.000;7.360;2023-04-06T08:46:15;12.50;1.00
39401;DHT22;54391;50.000;7.360;2023-04-06T08:48:43;13.30;1.00
39401;DHT22;54391;50.000;7.360;2023-04-06T08:51:11;13.90;1.00
39401;DHT22;54391;50.000;7.360;2023-04-06T08:53:39;14.30;1.00
39401;DHT22;54391;50.000;7.360;2023-04-06T08:56:07;13.90;1.00
39401;DHT22;54391;50.000;7.360;2023-04-06T08:58:39;13.90;1.00
39401;DHT22;54391;50.000;7.360;2023-04-06T09:01:08;13.60;1.00
39401;DHT22;54391;50.000;7.360;2023-04-06T09:03:39;13.30;1.00
39401;DHT22;54391;50.000;7.360;2023-04-06T09:06:08;13.00;1.00
39401;DHT22;54391;50.000;7.360;2023-04-06T09:08:38;12.90;1.00
39401;DHT22;54391;50.000;7.360;2023-04-06T09:11:05;12.30;1.00
39401;DHT22;54391;50.000;7.360;2023-04-06T09:13:44;12.10;1.00
39401;DHT22;54391;50.000;7.360;2023-04-06T09:16:12;12.10;1.00
39401;DHT22;54391;50.000;7.360;2023-04-06T09:18:41;12.00;1.00
39401;DHT22;54391;50.000;7.360;2023-04-06T09:21:09;11.70;1.00
39401;DHT22;54391;50.000;7.360;2023-04-06T09:23:37;12.30;1.00
39401;DHT22;54391;50.000;7.360;2023-04-06T09:26:09;13.20;1.00
39401;DHT22;54391;50.000;7.360;2023-04-06T09:28:45;13.90;1.00
39401;DHT22;54391;50.000;7.360;2023-04-06T09:31:13;13.80;1.00
39401;DHT22;54391;50.000;7.360;2023-04-06T09:33:43;14.10;1.00
39401;DHT22;54391;50.000;7.360;2023-04-06T09:36:11;14.50;1.00
39401;DHT22;54391;50.000;7.360;2023-04-06T09:38:52;14.70;1.00
39401;DHT22;54391;50.000;7.360;2023-04-06T09:41:24;14.80;1.00
39401;DHT22;54391;50.000;7.360;2023-04-06T09:43:52;15.30;1.00
39401;DHT22;54391;50.000;7.360;2023-04-06T09:46:31;14.90;1.00
39401;DHT22;54391;50.000;7.360;2023-04-06T09:49:02;13.70;1.00
39401;DHT22;54391;50.000;7.360;2023-04-06T09:51:31;13.50;1.00
39401;DHT22;54391;50.000;7.360;2023-04-06T09:53:59;13.40;1.00
39401;DHT22;54391;50.000;7.360;2023-04-06T09:56:43;12.80;1.00
39401;DHT22;54391;50.000;7.360;2023-04-06T09:59:14;13.00;1.00
39401;DHT22;54391;50.000;7.360;2023-04-06T10:01:49;12.30;1.00
39401;DHT22;54391;50.000;7.360;2023-04-06T10:04:30;12.40;1.00
39401;DHT22;54391;50.000;7.360;2023-04-06T10:07:00;12.80;1.00
39401;DHT22;54391;50.000;7.360;2023-04-06T10:09:29;13.20;1.00
39401;DHT22;54391;50.000;7.360;2023-04-06T10:12:03;13.40;1.00
39401;DHT22;54391;50.000;7.360;2023-04-06T10:14:32;13.00;1.00
39401;DHT22;54391;50.000;7.360;2023-04-06T10:17:02;13.10;1.00
39401;DHT22;54391;50.000;7.360;2023-04-06T10:19:34;13.00;1.00
39401;DHT22;54391;50.000;7.360;2023-04-06T10:22:08;13.30;1.00
39401;DHT22;54391;50.000;7.360;2023-04-06T10:24:35;13.60;1.00
39401;DHT22;54391;50.000;7.360;2023-04-06T10:27:03;13.40;1.00
39401;DHT22;54391;50.000;7.360;2023-04-06T10:29:42;13.10;1.00
39401;DHT22;54391;50.000;7.360;2023-04-06T10:32:11;12.90;1.00
39401;DHT22;54391;50.000;7.360;2023-04-06T10:34:39;12.90;1.00
39401;DHT22;54391;50.000;7.360;2023-04-06T10:37:14;12.30;1.00
39401;DHT22;54391;50.000;7.360;2023-04-06T10:39:51;12.30;1.00
39401;DHT22;54391;50.000;7.360;2023-04-06T10:42:24;12.30;1.00
39401;DHT22;54391;50.000;7.360;2023-04-06T10:47:19;12.30;1.00
39401;DHT22;54391;50.000;7.360;2023-04-06T10:49:48;12.00;1.00
39401;DHT22;54391;50.000;7.360;2023-04-06T10:52:15;12.20;1.00
39401;DHT22;54391;50.000;7.360;2023-04-06T10:54:43;12.20;1.00
39401;DHT22;54391;50.000;7.360;2023-04-06T10:57:12;12.20;1.00
39401;DHT22;54391;50.000;7.360;2023-04-06T10:59:42;12.50;1.00
39401;DHT22;54391;50.000;7.360;2023-04-06T11:02:19;12.90;1.00
39401;DHT22;54391;50.000;7.360;2023-04-06T11:04:55;12.90;1.00
39401;DHT22;54391;50.000;7.360;2023-04-06T11:07:23;12.90;1.00
39401;DHT22;54391;50.000;7.360;2023-04-06T11:09:51;12.70;1.00
39401;DHT22;54391;50.000;7.360;2023-04-06T11:12:23;12.60;1.00
39401;DHT22;54391;50.000;7.360;2023-04-06T11:14:55;12.70;1.00
39401;DHT22;54391;50.000;7.360;2023-04-06T11:17:28;12.50;1.00
39401;DHT22;54391;50.000;7.360;2023-04-06T11:19:58;11.30;1.00
39401;DHT22;54391;50.000;7.360;2023-04-06T11:22:25;12.60;1.00
39401;DHT22;54391;50.000;7.360;2023-04-06T11:25:03;12.60;1.00
39401;DHT22;54391;50.000;7.360;2023-04-06T11:27:31;12.50;1.00
39401;DHT22;54391;50.000;7.360;2023-04-06T11:29:59;12.80;1.00
39401;DHT22;54391;50.000;7.360;2023-04-06T11:32:28;12.50;1.00
39401;DHT22;54391;50.000;7.360;2023-04-06T11:34:59;12.20;1.00
39401;DHT22;54391;50.000;7.360;2023-04-06T11:37:28;12.50;1.00
39401;DHT22;54391;50.000;7.360;2023-04-06T11:39:56;12.40;1.00
39401;DHT22;54391;50.000;7.360;2023-04-06T11:42:24;12.20;1.00
39401;DHT22;54391;50.000;7.360;2023-04-06T11:44:53;12.10;1.00
39401;DHT22;54391;50.000;7.360;2023-04-06T11:47:27;11.90;1.00
39401;DHT22;54391;50.000;7.360;2023-04-06T11:49:55;11.40;1.00
39401;DHT22;54391;50.000;7.360;2023-04-06T11:52:27;11.10;1.00
39401;DHT22;54391;50.000;7.360;2023-04-06T11:54:55;11.00;1.00
39401;DHT22;54391;50.000;7.360;2023-04-06T11:57:23;11.30;1.00
39401;DHT22;54391;50.000;7.360;2023-04-06T12:02:18;12.00;1.00
39401;DHT22;54391;50.000;7.360;2023-04-06T12:04:46;11.40;1.00
39401;DHT22;54391;50.000;7.360;2023-04-06T12:07:13;11.20;1.00
39401;DHT22;54391;50.000;7.360;2023-04-06T12:09:43;11.50;1.00
39401;DHT22;54391;50.000;7.360;2023-04-06T12:12:10;11.60;1.00
39401;DHT22;54391;50.000;7.360;2023-04-06T12:17:05;11.70;1.00
39401;DHT22;54391;50.000;7.360;2023-04-06T12:19:32;11.60;1.00
39401;DHT22;54391;50.000;7.360;2023-04-06T12:22:00;11.40;1.00
39401;DHT22;54391;50.000;7.360;2023-04-06T12:26:57;11.90;1.00
39401;DHT22;54391;50.000;7.360;2023-04-06T12:29:24;12.00;1.00
39401;DHT22;54391;50.000;7.360;2023-04-06T12:31:51;11.90;1.00
39401;DHT22;54391;50.000;7.360;2023-04-06T12:34:19;12.10;1.00
39401;DHT22;54391;50.000;7.360;2023-04-06T12:36:46;11.70;1.00
39401;DHT22;54391;50.000;7.360;2023-04-06T12:39:14;10.00;1.00
39401;DHT22;54391;50.000;7.360;2023-04-06T12:41:41;11.50;1.00
39401;DHT22;54391;50.000;7.360;2023-04-06T12:44:10;11.80;1.00
39401;DHT22;54391;50.000;7.360;2023-04-06T12:54:00;11.90;1.00
39401;DHT22;54391;50.000;7.360;2023-04-06T12:56:28;11.60;1.00
39401;DHT22;54391;50.000;7.360;2023-04-06T13:01:24;10.80;1.00
39401;DHT22;54391;50.000;7.360;2023-04-06T13:03:53;10.60;1.00
39401;DHT22;54391;50.000;7.360;2023-04-06T13:06:21;10.80;1.00
39401;DHT22;54391;50.000;7.360;2023-04-06T13:08:48;11.00;1.00
39401;DHT22;54391;50.000;7.360;2023-04-06T13:11:16;11.00;1.00
39401;DHT22;54391;50.000;7.360;2023-04-06T13:13:46;10.80;1.00
39401;DHT22;54391;50.000;7.360;2023-04-06T13:16:13;10.60;1.00
39401;DHT22;54391;50.000;7.360;2023-04-06T13:18:42;10.70;1.00
39401;DHT22;54391;50.000;7.360;2023-04-06T13:21:12;10.50;1.00
39401;DHT22;54391;50.000;7.360;2023-04-06T13:23:41;10.40;1.00
39401;DHT22;54391;50.000;7.360;2023-04-06T13:26:08;10.40;1.00
39401;DHT22;54391;50.000;7.360;2023-04-06T13:28:36;10.30;1.00
39401;DHT22;54391;50.000;7.360;2023-04-06T13:31:05;10.30;1.00
39401;DHT22;54391;50.000;7.360;2023-04-06T13:33:33;10.40;1.00
39401;DHT22;54391;50.000;7.360;2023-04-06T13:36:02;10.80;1.00
39401;DHT22;54391;50.000;7.360;2023-04-06T13:40:57;11.10;1.00
39401;DHT22;54391;50.000;7.360;2023-04-06T13:43:24;11.00;1.00
39401;DHT22;54391;50.000;7.360;2023-04-06T13:45:53;10.80;1.00
39401;DHT22;54391;50.000;7.360;2023-04-06T13:48:21;10.60;1.00
39401;DHT22;54391;50.000;7.360;2023-04-06T13:53:18;10.40;1.00
39401;DHT22;54391;50.000;7.360;2023-04-06T13:55:52;10.40;1.00
39401;DHT22;54391;50.000;7.360;2023-04-06T14:03:15;10.30;1.00
39401;DHT22;54391;50.000;7.360;2023-04-06T14:05:42;10.20;1.00
39401;DHT22;54391;50.000;7.360;2023-04-06T14:08:09;9.80;1.00
39401;DHT22;54391;50.000;7.360;2023-04-06T14:10:39;9.80;1.00
39401;DHT22;54391;50.000;7.360;2023-04-06T14:13:07;9.80;1.00
39401;DHT22;54391;50.000;7.360;2023-04-06T14:18:04;9.90;1.00
39401;DHT22;54391;50.000;7.360;2023-04-06T14:23:00;9.70;1.00
39401;DHT22;54391;50.000;7.360;2023-04-06T14:25:27;9.60;1.00
39401;DHT22;54391;50.000;7.360;2023-04-06T14:27:58;9.50;1.00
39401;DHT22;54391;50.000;7.360;2023-04-06T14:30:25;9.60;1.00
39401;DHT22;54391;50.000;7.360;2023-04-06T14:32:56;9.80;1.00
39401;DHT22;54391;50.000;7.360;2023-04-06T14:35:24;9.70;1.00
39401;DHT22;54391;50.000;7.360;2023-04-06T14:42:50;9.60;1.00
39401;DHT22;54391;50.000;7.360;2023-04-06T14:45:19;9.70;1.00
39401;DHT22;54391;50.000;7.360;2023-04-06T14:47:47;9.50;1.00
39401;DHT22;54391;50.000;7.360;2023-04-06T14:50:14;9.40;1.00
39401;DHT22;54391;50.000;7.360;2023-04-06T14:52:41;9.40;1.00
39401;DHT22;54391;50.000;7.360;2023-04-06T14:55:09;9.30;1.00
39401;DHT22;54391;50.000;7.360;2023-04-06T15:00:05;9.10;1.00
39401;DHT22;54391;50.000;7.360;2023-04-06T15:02:35;9.00;1.00
39401;DHT22;54391;50.000;7.360;2023-04-06T15:05:02;8.80;2.80
39401;DHT22;54391;50.000;7.360;2023-04-06T15:09:58;8.30;9.20
39401;DHT22;54391;50.000;7.360;2023-04-06T15:12:25;8.20;10.00
39401;DHT22;54391;50.000;7.360;2023-04-06T15:14:55;8.00;13.20
39401;DHT22;54391;50.000;7.360;2023-04-06T15:17:22;7.90;13.90
39401;DHT22;54391;50.000;7.360;2023-04-06T15:19:52;7.80;16.30
39401;DHT22;54391;50.000;7.360;2023-04-06T15:24:47;7.80;18.10
39401;DHT22;54391;50.000;7.360;2023-04-06T15:27:14;7.70;17.10
39401;DHT22;54391;50.000;7.360;2023-04-06T15:32:09;7.50;19.80
39401;DHT22;54391;50.000;7.360;2023-04-06T15:37:05;7.20;23.50
39401;DHT22;54391;50.000;7.360;2023-04-06T15:42:02;7.10;25.70
39401;DHT22;54391;50.000;7.360;2023-04-06T15:44:29;6.90;29.70
39401;DHT22;54391;50.000;7.360;2023-04-06T15:49:24;6.90;30.50
39401;DHT22;54391;50.000;7.360;2023-04-06T15:51:51;6.70;30.90
39401;DHT22;54391;50.000;7.360;2023-04-06T15:54:20;6.70;37.80
39401;DHT22;54391;50.000;7.360;2023-04-06T15:56:47;6.70;37.00
39401;DHT22;54391;50.000;7.360;2023-04-06T15:59:15;6.60;36.30
39401;DHT22;54391;50.000;7.360;2023-04-06T16:01:42;6.60;41.40
39401;DHT22;54391;50.000;7.360;2023-04-06T16:04:10;6.60;48.00
39401;DHT22;54391;50.000;7.360;2023-04-06T16:09:05;6.50;45.70
39401;DHT22;54391;50.000;7.360;2023-04-06T16:11:34;6.50;47.70
39401;DHT22;54391;50.000;7.360;2023-04-06T16:14:02;6.50;48.60
39401;DHT22;54391;50.000;7.360;2023-04-06T16:16:29;6.50;49.50
39401;DHT22;54391;50.000;7.360;2023-04-06T16:21:24;6.30;49.80
39401;DHT22;54391;50.000;7.360;2023-04-06T16:23:52;6.40;53.70
39401;DHT22;54391;50.000;7.360;2023-04-06T16:26:20;6.30;56.70
39401;DHT22;54391;50.000;7.360;2023-04-06T16:28:50;6.30;56.60
39401;DHT22;54391;50.000;7.360;2023-04-06T16:31:19;6.30;56.50
39401;DHT22;54391;50.000;7.360;2023-04-06T16:33:47;6.20;54.80
39401;DHT22;54391;50.000;7.360;2023-04-06T16:36:20;6.20;56.80
39401;DHT22;54391;50.000;7.360;2023-04-06T16:38:48;6.30;57.30
39401;DHT22;54391;50.000;7.360;2023-04-06T16:41:15;6.20;63.00
39401;DHT22;54391;50.000;7.360;2023-04-06T16:46:12;6.20;62.00
39401;DHT22;54391;50.000;7.360;2023-04-06T16:48:39;6.20;64.10
39401;DHT22;54391;50.000;7.360;2023-04-06T16:51:07;6.20;65.00
39401;DHT22;54391;50.000;7.360;2023-04-06T16:53:35;6.20;65.50
39401;DHT22;54391;50.000;7.360;2023-04-06T16:56:03;6.20;62.20
39401;DHT22;54391;50.000;7.360;2023-04-06T16:58:31;6.10;61.90
39401;DHT22;54391;50.000;7.360;2023-04-06T17:00:58;6.10;64.10
39401;DHT22;54391;50.000;7.360;2023-04-06T17:03:28;6.10;66.20
39401;DHT22;54391;50.000;7.360;2023-04-06T17:05:55;6.10;65.80
39401;DHT22;54391;50.000;7.360;2023-04-06T17:10:50;6.00;66.30
39401;DHT22;54391;50.000;7.360;2023-04-06T17:13:17;6.00;68.60
39401;DHT22;54391;50.000;7.360;2023-04-06T17:18:12;5.90;71.70
39401;DHT22;54391;50.000;7.360;2023-04-06T17:20:41;6.00;74.10
39401;DHT22;54391;50.000;7.360;2023-04-06T17:23:08;5.90;74.30
39401;DHT22;54391;50.000;7.360;2023-04-06T17:25:35;5.90;73.10
39401;DHT22;54391;50.000;7.360;2023-04-06T17:28:02;5.80;72.70
39401;DHT22;54391;50.000;7.360;2023-04-06T17:30:30;5.80;73.40
39401;DHT22;54391;50.000;7.360;2023-04-06T17:32:59;5.70;75.40
39401;DHT22;54391;50.000;7.360;2023-04-06T17:35:27;5.70;77.20
39401;DHT22;54391;50.000;7.360;2023-04-06T17:37:56;5.70;76.10
39401;DHT22;54391;50.000;7.360;2023-04-06T17:40:23;5.60;78.20
39401;DHT22;54391;50.000;7.360;2023-04-06T17:42:50;5.70;80.30
39401;DHT22;54391;50.000;7.360;2023-04-06T17:45:18;5.70;81.40
39401;DHT22;54391;50.000;7.360;2023-04-06T17:47:45;5.60;82.20
39401;DHT22;54391;50.000;7.360;2023-04-06T17:52:40;5.60;83.50
39401;DHT22;54391;50.000;7.360;2023-04-06T17:55:09;5.60;84.20
39401;DHT22;54391;50.000;7.360;2023-04-06T18:00:04;5.50;87.60
39401;DHT22;54391;50.000;7.360;2023-04-06T18:05:00;5.50;89.80
39401;DHT22;54391;50.000;7.360;2023-04-06T18:07:28;5.70;88.60
39401;DHT22;54391;50.000;7.360;2023-04-06T18:09:55;5.40;88.50
39401;DHT22;54391;50.000;7.360;2023-04-06T18:12:24;5.40;89.20
39401;DHT22;54391;50.000;7.360;2023-04-06T18:14:51;5.40;90.10
39401;DHT22;54391;50.000;7.360;2023-04-06T18:17:18;5.40;90.40
39401;DHT22;54391;50.000;7.360;2023-04-06T18:19:46;5.40;90.20
39401;DHT22;54391;50.000;7.360;2023-04-06T18:22:14;5.40;91.80
39401;DHT22;54391;50.000;7.360;2023-04-06T18:24:41;5.40;91.20
39401;DHT22;54391;50.000;7.360;2023-04-06T18:27:08;5.40;91.50
39401;DHT22;54391;50.000;7.360;2023-04-06T18:29:37;5.40;91.60
39401;DHT22;54391;50.000;7.360;2023-04-06T18:32:05;5.40;91.80
39401;DHT22;54391;50.000;7.360;2023-04-06T18:34:32;5.30;92.60
39401;DHT22;54391;50.000;7.360;2023-04-06T18:36:59;5.40;94.00